createdAt,value
2023-03-27T00:03:31.861Z,112.17
2023-03-27T00:07:31.906Z,46.99
2023-03-27T00:11:32.007Z,84.64
2023-03-27T00:15:31.994Z,95.50
2023-03-27T00:19:32.052Z,59.68
2023-03-27T00:23:32.136Z,58.71
2023-03-27T00:27:32.311Z,81.62
2023-03-27T00:31:32.530Z,77.40
2023-03-27T00:35:32.543Z,48.87
2023-03-27T00:39:32.543Z,58.84
2023-03-27T00:43:32.655Z,98.37
2023-03-27T00:47:32.942Z,63.76
2023-03-27T00:51:32.963Z,92.53
2023-03-27T00:55:33.039Z,80.48
2023-03-27T00:59:33.150Z,63.61
2023-03-27T01:03:33.346Z,68.82
2023-03-27T01:07:33.366Z,83.69
2023-03-27T01:11:33.436Z,92.88
2023-03-27T01:15:33.496Z,62.12
2023-03-27T01:19:33.616Z,64.09
2023-03-27T01:23:35.450Z,90.09
2023-03-27T01:27:34.694Z,86.10
2023-03-27T01:31:33.683Z,56.93
2023-03-27T01:35:33.677Z,39.68
2023-03-27T01:39:33.580Z,49.98
2023-03-27T01:43:33.546Z,33.39
2023-03-27T01:47:33.557Z,24.32
2023-03-27T01:51:33.503Z,25.70
2023-03-27T01:55:33.441Z,30.33
2023-03-27T01:59:33.408Z,36.95
2023-03-27T02:03:33.398Z,55.29
2023-03-27T02:07:33.365Z,52.34
2023-03-27T02:11:33.305Z,51.68
2023-03-27T02:15:33.271Z,40.43
2023-03-27T02:19:33.239Z,51.35
2023-03-27T02:23:33.213Z,62.13
2023-03-27T02:27:33.196Z,54.83
2023-03-27T02:31:34.841Z,42.94
2023-03-27T02:35:33.144Z,67.01
2023-03-27T02:39:33.086Z,57.79
2023-03-27T02:43:33.073Z,71.03
2023-03-27T02:47:33.069Z,31.31
2023-03-27T02:51:33.024Z,41.53
2023-03-27T02:55:33.105Z,37.65
2023-03-27T02:59:33.180Z,52.56
2023-03-27T03:03:33.216Z,56.83
2023-03-27T03:07:33.254Z,70.71
2023-03-27T03:11:33.297Z,70.76
2023-03-27T03:15:33.332Z,57.41
2023-03-27T03:19:33.388Z,63.23
2023-03-27T03:23:33.331Z,50.44
2023-03-27T03:27:33.326Z,44.90
2023-03-27T03:31:33.344Z,52.68
2023-03-27T03:35:33.373Z,34.04
2023-03-27T03:39:33.325Z,27.63
2023-03-27T03:43:33.362Z,34.45
2023-03-27T03:47:33.362Z,43.34
2023-03-27T03:51:33.391Z,51.75
2023-03-27T03:55:33.430Z,58.69
2023-03-27T03:59:33.515Z,70.68
2023-03-27T04:03:33.694Z,68.26
2023-03-27T04:07:33.735Z,67.95
2023-03-27T04:11:33.815Z,70.45
2023-03-27T04:15:33.930Z,65.50
2023-03-27T04:19:34.026Z,79.37
2023-03-27T04:23:34.168Z,81.40
2023-03-27T04:27:34.314Z,82.13
2023-03-27T04:31:34.631Z,75.77
2023-03-27T04:35:34.569Z,59.59
2023-03-27T04:39:34.651Z,66.31
2023-03-27T04:43:34.793Z,61.81
2023-03-27T04:47:35.150Z,85.76
2023-03-27T04:51:35.137Z,92.90
2023-03-27T04:55:35.276Z,104.54
2023-03-27T04:59:35.417Z,90.48
2023-03-27T05:03:35.600Z,96.23
2023-03-27T05:07:35.657Z,95.04
2023-03-27T05:11:35.802Z,111.09
2023-03-27T05:15:35.858Z,141.65
2023-03-27T05:19:36.011Z,124.16
2023-03-27T05:23:36.106Z,138.70
2023-03-27T05:27:36.251Z,152.68
2023-03-27T05:31:36.442Z,216.96
2023-03-27T05:35:36.494Z,251.97
2023-03-27T05:39:36.588Z,255.62
2023-03-27T05:43:36.733Z,250.56
2023-03-27T05:47:36.983Z,250.00
2023-03-27T05:51:37.185Z,222.17
2023-03-27T05:55:37.306Z,78.55
2023-03-27T05:59:37.399Z,118.39
2023-03-27T06:03:37.630Z,184.09
2023-03-27T06:07:37.557Z,217.14
2023-03-27T06:11:37.743Z,222.76
2023-03-27T06:15:37.962Z,216.69
2023-03-27T06:19:39.162Z,210.40
2023-03-27T06:23:38.133Z,215.41
2023-03-27T06:27:38.214Z,228.62
2023-03-27T06:31:38.809Z,207.42
2023-03-27T06:35:38.720Z,206.53
2023-03-27T06:39:38.686Z,236.80
2023-03-27T06:43:38.422Z,247.38
2023-03-27T06:47:44.448Z,137.20
2023-03-27T06:51:39.469Z,85.58
2023-03-27T06:55:38.705Z,124.48
2023-03-27T06:59:38.672Z,57.03
2023-03-27T07:03:38.514Z,61.52
2023-03-27T07:07:41.058Z,32.97
2023-03-27T07:11:38.622Z,35.35
2023-03-27T07:15:38.544Z,62.76
2023-03-27T07:19:38.551Z,41.46
2023-03-27T07:23:38.699Z,35.31
2023-03-27T07:27:38.447Z,67.97
2023-03-27T07:35:38.734Z,37.09
2023-03-27T07:39:38.318Z,49.58
2023-03-27T07:43:38.319Z,51.27
2023-03-27T07:47:38.263Z,63.76
2023-03-27T07:51:38.221Z,122.11
2023-03-27T07:55:38.205Z,115.60
2023-03-27T07:59:38.164Z,99.80
2023-03-27T08:03:38.251Z,90.76
2023-03-27T08:07:38.301Z,102.92
2023-03-27T08:11:38.527Z,96.38
2023-03-27T08:15:38.736Z,83.59
2023-03-27T08:19:39.212Z,60.20
2023-03-27T08:23:39.073Z,30.34
2023-03-27T08:27:39.202Z,152.43
2023-03-27T08:31:39.332Z,213.24
2023-03-27T08:35:39.436Z,233.11
2023-03-27T08:39:39.719Z,239.72
2023-03-27T08:43:39.720Z,248.09
2023-03-27T08:47:39.869Z,248.07
2023-03-27T08:51:39.954Z,240.81
2023-03-27T08:55:40.245Z,245.50
2023-03-27T08:59:39.866Z,237.75
2023-03-27T09:03:39.958Z,240.33
2023-03-27T09:07:40.223Z,240.97
2023-03-27T09:11:39.777Z,213.73
2023-03-27T09:15:39.846Z,250.00
2023-03-27T09:19:39.723Z,250.22
2023-03-27T09:23:39.724Z,240.61
2023-03-27T09:27:39.707Z,198.14
2023-03-27T09:31:39.765Z,206.63
2023-03-27T09:35:40.240Z,233.06
2023-03-27T09:39:39.964Z,243.24
2023-03-27T09:43:40.214Z,245.22
2023-03-27T09:47:40.275Z,243.48
2023-03-27T09:51:40.296Z,239.00
2023-03-27T09:55:41.193Z,228.33
2023-03-27T09:59:40.447Z,236.01
2023-03-27T10:03:40.566Z,224.27
2023-03-27T10:07:40.642Z,234.28
2023-03-27T10:11:40.737Z,232.47
2023-03-27T10:15:40.679Z,215.80
2023-03-27T10:19:40.766Z,189.61
2023-03-27T10:23:41.328Z,181.17
2023-03-27T10:27:41.233Z,192.40
2023-03-27T10:31:41.260Z,195.42
2023-03-27T10:35:41.241Z,235.27
2023-03-27T10:39:41.296Z,227.17
2023-03-27T10:43:41.315Z,227.70
2023-03-27T10:47:41.316Z,225.31
2023-03-27T10:51:46.612Z,228.08
2023-03-27T10:55:42.235Z,224.62
2023-03-27T10:59:42.130Z,221.83
2023-03-27T11:03:41.423Z,202.64
2023-03-27T11:07:41.585Z,211.88
2023-03-27T11:11:41.795Z,214.53
2023-03-27T11:15:42.332Z,182.53
2023-03-27T11:19:41.908Z,195.45
2023-03-27T11:23:42.242Z,171.48
2023-03-27T11:27:41.994Z,136.30
2023-03-27T11:31:42.102Z,148.73
2023-03-27T11:35:42.150Z,131.22
2023-03-27T11:39:42.244Z,105.66
2023-03-27T11:43:42.383Z,161.45
2023-03-27T11:47:42.684Z,164.59
2023-03-27T11:51:42.585Z,190.58
2023-03-27T11:55:42.662Z,221.17
2023-03-27T11:59:42.740Z,199.06
2023-03-27T12:03:42.762Z,219.38
2023-03-27T12:07:47.653Z,225.36
2023-03-27T12:11:43.789Z,194.60
2023-03-27T12:15:42.664Z,231.71
2023-03-27T12:19:42.788Z,227.00
2023-03-27T12:23:42.716Z,226.38
2023-03-27T12:27:42.973Z,226.16
2023-03-27T12:31:42.907Z,225.99
2023-03-27T12:35:42.887Z,224.93
2023-03-27T12:39:42.809Z,226.08
2023-03-27T12:43:42.804Z,224.24
2023-03-27T12:47:42.849Z,219.81
2023-03-27T12:51:42.708Z,222.71
2023-03-27T12:55:42.917Z,220.30
2023-03-27T12:59:43.067Z,219.48
2023-03-27T13:03:43.189Z,218.20
2023-03-27T13:07:43.281Z,217.77
2023-03-27T13:11:43.294Z,216.50
2023-03-27T13:15:43.222Z,215.68
2023-03-27T13:19:43.219Z,217.28
2023-03-27T13:23:43.221Z,216.08
2023-03-27T13:27:43.246Z,215.99
2023-03-27T13:31:43.401Z,217.01
2023-03-27T13:35:43.364Z,215.58
2023-03-27T13:39:43.345Z,213.63
2023-03-27T15:15:45.728Z,182.03
2023-03-27T15:19:45.813Z,187.90
2023-03-27T15:23:45.675Z,181.19
2023-03-27T15:27:45.635Z,198.97
2023-03-27T15:32:06.287Z,25.00
2023-03-27T15:33:06.361Z,25.00
2023-03-27T15:34:06.292Z,25.00
2023-03-27T15:35:06.264Z,25.00
2023-03-27T15:36:06.325Z,25.00
2023-03-27T15:37:06.277Z,46.72
2023-03-27T15:38:06.263Z,0.00
2023-03-27T15:39:06.241Z,38.04
2023-03-27T15:40:06.243Z,74.60
2023-03-27T15:41:06.250Z,52.56
2023-03-27T15:42:06.230Z,62.06
2023-03-27T15:43:06.216Z,68.42
2023-03-27T15:44:06.205Z,101.90
2023-03-27T15:45:06.220Z,121.11
2023-03-27T15:46:06.273Z,79.62
2023-03-27T15:47:06.225Z,88.93
2023-03-27T15:48:06.238Z,115.60
2023-03-27T15:49:06.190Z,145.24
2023-03-27T15:50:06.165Z,128.00
2023-03-27T15:51:06.202Z,141.53
2023-03-27T15:52:06.151Z,115.52
2023-03-27T15:53:06.149Z,117.85
2023-03-27T15:54:06.161Z,203.16
2023-03-27T15:55:06.150Z,212.62
2023-03-27T15:56:06.156Z,231.68
2023-03-27T15:57:10.791Z,249.91
2023-03-27T15:58:07.132Z,224.58
2023-03-27T15:59:06.156Z,149.18
2023-03-27T16:00:06.119Z,0.00
2023-03-27T16:01:18.015Z,0.00
2023-03-27T16:02:07.167Z,0.00
2023-03-27T16:03:06.216Z,0.00
2023-03-27T16:04:06.195Z,0.00
2023-03-27T16:05:06.137Z,0.00
2023-03-27T16:06:06.113Z,0.00
2023-03-27T16:07:06.081Z,0.00
2023-03-27T16:08:06.073Z,0.00
2023-03-27T16:09:06.077Z,0.00
2023-03-27T16:10:06.061Z,0.00
2023-03-27T16:11:06.066Z,0.00
2023-03-27T16:12:06.049Z,0.00
2023-03-27T16:13:06.039Z,0.00
2023-03-27T16:14:06.062Z,0.00
2023-03-27T16:15:08.403Z,0.00
2023-03-27T16:16:06.317Z,0.00
2023-03-27T16:17:06.286Z,0.00
2023-03-27T16:18:06.408Z,0.00
2023-03-27T16:19:06.391Z,0.00
2023-03-27T16:20:06.421Z,0.00
2023-03-27T16:21:06.808Z,22.75
2023-03-27T16:22:06.541Z,37.41
2023-03-27T16:23:06.568Z,54.19
2023-03-27T16:24:06.618Z,81.28
2023-03-27T16:25:06.666Z,79.88
2023-03-27T16:26:06.703Z,96.13
2023-03-27T16:27:06.772Z,115.63
2023-03-27T16:28:06.838Z,114.62
2023-03-27T16:29:06.892Z,129.03
2023-03-27T16:30:06.945Z,133.85
2023-03-27T16:31:07.015Z,152.91
2023-03-27T16:32:07.059Z,165.56
2023-03-27T16:33:07.176Z,160.32
2023-03-27T16:34:07.124Z,164.87
2023-03-27T16:35:07.410Z,177.89
2023-03-27T16:36:07.162Z,183.65
2023-03-27T16:37:07.101Z,184.60
2023-03-27T16:38:07.097Z,197.91
2023-03-27T16:39:07.146Z,208.22
2023-03-27T16:40:07.095Z,181.29
2023-03-27T16:41:07.100Z,170.90
2023-03-27T16:42:07.107Z,172.12
2023-03-27T16:43:07.123Z,181.09
2023-03-27T16:44:07.154Z,174.44
2023-03-27T16:45:07.195Z,144.10
2023-03-27T16:46:07.265Z,153.04
2023-03-27T16:47:07.274Z,164.90
2023-03-27T16:48:07.337Z,184.01
2023-03-27T16:49:07.323Z,194.92
2023-03-27T16:50:11.751Z,212.92
2023-03-27T16:51:07.344Z,206.94
2023-03-27T16:52:07.326Z,202.94
2023-03-27T16:53:07.314Z,200.18
2023-03-27T16:54:07.338Z,195.70
2023-03-27T16:55:07.776Z,202.93
2023-03-27T16:56:07.309Z,215.76
2023-03-27T16:57:07.309Z,231.02
2023-03-27T16:58:07.281Z,229.92
2023-03-27T16:59:07.274Z,235.48
2023-03-27T17:00:07.259Z,233.25
2023-03-27T17:01:07.308Z,235.98
2023-03-27T17:02:07.271Z,238.39
2023-03-27T17:03:07.309Z,240.91
2023-03-27T17:04:07.249Z,236.21
2023-03-27T17:05:07.279Z,236.67
2023-03-27T17:06:07.245Z,231.46
2023-03-27T17:07:07.242Z,210.42
2023-03-27T17:08:07.527Z,192.90
2023-03-27T17:09:07.237Z,205.18
2023-03-27T17:10:07.237Z,199.85
2023-03-27T17:11:07.207Z,221.83
2023-03-27T17:12:07.204Z,224.19
2023-03-27T17:13:07.195Z,223.23
2023-03-27T17:14:07.197Z,221.34
2023-03-27T17:15:07.203Z,225.68
2023-03-27T17:16:07.188Z,234.83
2023-03-27T17:17:07.200Z,228.53
2023-03-27T17:18:07.192Z,223.65
2023-03-27T17:19:07.164Z,226.07
2023-03-27T17:20:07.168Z,227.63
2023-03-27T17:21:07.158Z,237.03
2023-03-27T17:22:07.140Z,239.75
2023-03-27T17:23:07.136Z,233.81
2023-03-27T17:24:07.138Z,231.14
2023-03-27T17:25:07.112Z,226.54
2023-03-27T17:26:09.107Z,224.61
2023-03-27T17:27:07.116Z,214.23
2023-03-27T17:28:07.122Z,217.47
2023-03-27T17:29:07.095Z,219.00
2023-03-27T17:30:07.108Z,217.70
2023-03-27T17:31:07.112Z,214.86
2023-03-27T17:32:07.114Z,206.42
2023-03-27T17:33:07.193Z,198.73
2023-03-27T17:34:07.077Z,194.35
2023-03-27T17:35:07.062Z,195.02
2023-03-27T17:36:07.059Z,194.43
2023-03-27T17:37:07.093Z,201.51
2023-03-27T17:38:07.045Z,218.49
2023-03-27T17:39:07.043Z,209.04
2023-03-27T17:40:07.059Z,218.98
2023-03-27T17:41:07.029Z,222.80
2023-03-27T17:42:07.036Z,217.52
2023-03-27T17:43:07.026Z,216.03
2023-03-27T17:44:07.642Z,208.05
2023-03-27T17:45:06.998Z,203.78
2023-03-27T17:46:07.024Z,210.34
2023-03-27T17:47:07.000Z,217.83
2023-03-27T17:48:07.093Z,219.32
2023-03-27T17:49:06.995Z,220.95
2023-03-27T17:50:06.973Z,226.67
2023-03-27T17:51:09.749Z,131.85
2023-03-27T17:52:06.962Z,87.44
2023-03-27T17:53:07.020Z,46.04
2023-03-27T17:54:06.954Z,31.10
2023-03-27T17:55:06.944Z,32.47
2023-03-27T17:56:06.926Z,35.66
2023-03-27T17:57:06.980Z,41.31
2023-03-27T17:58:09.747Z,27.00
2023-03-27T17:59:06.920Z,10.54
2023-03-27T18:00:06.903Z,21.43
2023-03-27T18:01:06.908Z,29.67
2023-03-27T18:02:06.957Z,39.54
2023-03-27T18:03:06.942Z,59.62
2023-03-27T18:04:07.024Z,91.68
2023-03-27T18:05:06.871Z,96.46
2023-03-27T18:06:06.876Z,106.19
2023-03-27T18:07:06.873Z,116.77
2023-03-27T18:08:06.871Z,123.36
2023-03-27T18:09:06.851Z,123.04
2023-03-27T18:10:06.834Z,125.18
2023-03-27T18:11:06.894Z,138.72
2023-03-27T18:12:06.822Z,142.59
2023-03-27T18:13:06.840Z,155.90
2023-03-27T18:14:06.823Z,167.46
2023-03-27T18:15:06.814Z,193.48
2023-03-27T18:16:07.364Z,202.53
2023-03-27T18:17:06.787Z,195.84
2023-03-27T18:18:06.832Z,193.10
2023-03-27T18:19:06.789Z,190.84
2023-03-27T18:20:06.804Z,186.09
2023-03-27T18:21:06.760Z,190.49
2023-03-27T18:22:06.771Z,196.86
2023-03-27T18:23:06.800Z,204.07
2023-03-27T18:24:06.772Z,184.60
2023-03-27T18:25:06.741Z,197.91
2023-03-27T18:26:06.749Z,195.62
2023-03-27T18:27:06.743Z,184.33
2023-03-27T18:28:06.724Z,203.22
2023-03-27T18:29:06.722Z,199.75
2023-03-27T18:30:06.715Z,210.69
2023-03-27T18:31:06.727Z,207.60
2023-03-27T18:32:06.688Z,201.20
2023-03-27T18:33:06.751Z,190.99
2023-03-27T18:34:06.700Z,185.39
2023-03-27T18:35:06.689Z,175.64
2023-03-27T18:36:06.694Z,171.61
2023-03-27T18:37:06.702Z,178.41
2023-03-27T18:38:06.652Z,185.77
2023-03-27T18:39:06.724Z,185.54
2023-03-27T18:40:06.649Z,179.71
2023-03-27T18:41:06.653Z,175.17
2023-03-27T18:42:06.653Z,184.98
2023-03-27T18:43:06.669Z,183.36
2023-03-27T18:44:06.619Z,178.78
2023-03-27T18:45:06.636Z,166.95
2023-03-27T18:46:06.665Z,161.48
2023-03-27T18:47:06.597Z,156.31
2023-03-27T18:48:06.633Z,160.70
2023-03-27T18:49:17.327Z,169.47
2023-03-27T18:50:07.580Z,169.79
2023-03-27T18:51:06.592Z,171.16
2023-03-27T18:52:06.558Z,171.35
2023-03-27T18:53:06.558Z,172.79
2023-03-27T18:54:06.556Z,173.51
2023-03-27T18:55:06.558Z,175.81
2023-03-27T18:56:06.557Z,164.19
2023-03-27T18:57:06.587Z,159.29
2023-03-27T18:58:06.554Z,161.59
2023-03-27T18:59:06.511Z,168.85
2023-03-27T19:00:06.509Z,169.12
2023-03-27T19:01:06.532Z,171.03
2023-03-27T19:02:06.552Z,175.84
2023-03-27T19:03:06.694Z,176.78
2023-03-27T19:04:06.487Z,174.99
2023-03-27T19:05:06.490Z,165.23
2023-03-27T19:06:06.548Z,156.04
2023-03-27T19:07:08.359Z,141.50
2023-03-27T19:08:06.585Z,146.19
2023-03-27T19:09:06.622Z,160.58
2023-03-27T19:10:06.663Z,163.50
2023-03-27T19:11:06.675Z,150.38
2023-03-27T19:12:06.710Z,150.90
2023-03-27T19:13:06.745Z,157.87
2023-03-27T19:14:06.797Z,156.17
2023-03-27T19:15:19.229Z,151.21
2023-03-27T19:16:15.265Z,151.27
2023-03-27T19:17:07.865Z,151.40
2023-03-27T19:18:06.845Z,153.02
2023-03-27T19:19:06.826Z,155.22
2023-03-27T19:20:06.814Z,146.81
2023-03-27T19:21:06.805Z,130.44
2023-03-27T19:22:06.780Z,133.99
2023-03-27T19:23:06.789Z,120.91
2023-03-27T19:24:06.787Z,125.33
2023-03-27T19:25:06.777Z,126.75
2023-03-27T19:26:06.758Z,132.79
2023-03-27T19:27:06.753Z,147.13
2023-03-27T19:28:07.766Z,147.14
2023-03-27T19:29:06.762Z,147.53
2023-03-27T19:30:06.748Z,148.50
2023-03-27T19:31:06.801Z,141.53
2023-03-27T19:32:06.722Z,136.21
2023-03-27T19:33:06.801Z,115.63
2023-03-27T19:34:06.722Z,98.93
2023-03-27T19:35:06.712Z,112.67
2023-03-27T19:36:06.742Z,113.52
2023-03-27T19:37:06.704Z,108.32
2023-03-27T19:38:06.701Z,103.52
2023-03-27T19:39:06.702Z,123.14
2023-03-27T19:40:06.700Z,119.15
2023-03-27T19:41:06.687Z,105.30
2023-03-27T19:42:06.748Z,104.42
2023-03-27T19:43:06.778Z,111.19
2023-03-27T19:44:06.813Z,112.93
2023-03-27T19:45:06.869Z,114.94
2023-03-27T19:46:15.901Z,114.82
2023-03-27T19:47:07.968Z,115.05
2023-03-27T19:48:06.942Z,112.90
2023-03-27T19:49:06.901Z,94.82
2023-03-27T19:50:06.869Z,93.67
2023-03-27T19:51:06.866Z,98.04
2023-03-27T19:52:06.863Z,95.00
2023-03-27T19:53:09.028Z,86.18
2023-03-27T19:54:06.897Z,70.39
2023-03-27T19:55:06.950Z,88.79
2023-03-27T19:56:06.978Z,96.01
2023-03-27T19:57:07.237Z,94.94
2023-03-27T19:58:07.080Z,98.42
2023-03-27T19:59:07.703Z,68.57
2023-03-27T20:00:07.157Z,80.38
2023-03-27T20:01:07.280Z,91.40
2023-03-27T20:02:07.254Z,78.80
2023-03-27T20:03:07.412Z,70.13
2023-03-27T20:04:07.351Z,80.06
2023-03-27T20:05:07.384Z,84.36
2023-03-27T20:06:09.116Z,71.32
2023-03-27T20:07:07.433Z,85.35
2023-03-27T20:08:07.414Z,73.85
2023-03-27T20:09:07.428Z,93.53
2023-03-27T20:10:07.422Z,95.58
2023-03-27T20:11:07.458Z,89.71
2023-03-27T20:12:07.423Z,99.82
2023-03-27T20:13:07.382Z,89.48
2023-03-27T20:14:07.394Z,97.10
2023-03-27T20:15:12.124Z,97.39
2023-03-27T20:16:08.413Z,91.34
2023-03-27T20:17:12.317Z,96.12
2023-03-27T20:18:08.409Z,97.43
2023-03-27T20:19:07.368Z,97.87
2023-03-27T20:20:07.360Z,94.85
2023-03-27T20:21:07.341Z,87.92
2023-03-27T20:22:07.333Z,91.74
2023-03-27T20:23:07.344Z,108.31
2023-03-27T20:24:07.348Z,112.00
2023-03-27T20:25:07.318Z,101.75
2023-03-27T20:26:07.313Z,108.82
2023-03-27T20:27:07.326Z,98.45
2023-03-27T20:28:07.336Z,96.80
2023-03-27T20:29:07.300Z,99.65
2023-03-27T20:30:07.308Z,98.38
2023-03-27T20:31:07.312Z,108.06
2023-03-27T20:33:07.333Z,99.25
2023-03-27T20:34:07.271Z,76.79
2023-03-27T20:35:16.488Z,105.11
2023-03-27T20:36:08.368Z,88.95
2023-03-27T20:37:07.302Z,93.94
2023-03-27T20:38:07.302Z,91.23
2023-03-27T20:39:07.292Z,91.35
2023-03-27T20:40:07.297Z,80.76
2023-03-27T20:41:07.284Z,100.16
2023-03-27T20:42:07.291Z,95.84
2023-03-27T20:43:07.285Z,77.59
2023-03-27T20:44:07.277Z,91.93
2023-03-27T20:45:07.259Z,95.81
2023-03-27T20:46:07.271Z,75.25
2023-03-27T20:47:07.590Z,96.54
2023-03-27T20:48:07.298Z,110.47
2023-03-27T20:49:07.335Z,89.60
2023-03-27T20:50:07.371Z,101.64
2023-03-27T20:51:07.431Z,100.05
2023-03-27T20:52:07.463Z,88.36
2023-03-27T20:53:07.511Z,76.96
2023-03-27T20:54:07.563Z,72.22
2023-03-27T20:55:07.631Z,68.96
2023-03-27T20:56:07.860Z,59.08
2023-03-27T20:57:07.894Z,74.66
2023-03-27T20:58:07.776Z,86.47
2023-03-27T20:59:07.838Z,64.66
2023-03-27T21:00:07.898Z,82.35
2023-03-27T21:01:07.894Z,96.02
2023-03-27T21:02:07.889Z,81.51
2023-03-27T21:03:08.411Z,90.25
2023-03-27T21:04:07.889Z,85.46
2023-03-27T21:05:07.921Z,87.46
2023-03-27T21:06:07.987Z,91.87
2023-03-27T21:07:08.017Z,86.04
2023-03-27T21:08:08.069Z,81.58
2023-03-27T21:09:08.111Z,62.98
2023-03-27T21:10:08.171Z,70.28
2023-03-27T21:11:08.241Z,96.09
2023-03-27T21:12:08.270Z,93.32
2023-03-27T21:13:08.332Z,87.95
2023-03-27T21:14:08.312Z,78.26
2023-03-27T21:15:08.321Z,88.46
2023-03-27T21:16:08.418Z,91.35
2023-03-27T21:17:08.402Z,82.88
2023-03-27T21:18:08.497Z,88.05
2023-03-27T21:19:08.499Z,74.97
2023-03-27T21:20:08.564Z,98.55
2023-03-27T21:21:08.608Z,78.55
2023-03-27T21:22:08.702Z,54.32
2023-03-27T21:23:08.717Z,67.04
2023-03-27T21:24:08.770Z,61.51
2023-03-27T21:25:08.831Z,91.46
2023-03-27T21:26:08.880Z,95.74
2023-03-27T21:27:08.934Z,104.19
2023-03-27T21:28:08.962Z,105.22
2023-03-27T21:29:09.046Z,79.34
2023-03-27T21:30:09.074Z,66.26
2023-03-27T21:31:09.140Z,60.52
2023-03-27T21:32:09.274Z,67.87
2023-03-27T21:33:09.247Z,71.61
2023-03-27T21:34:09.293Z,82.48
2023-03-27T21:35:09.348Z,68.87
2023-03-27T21:36:09.521Z,56.17
2023-03-27T21:37:09.480Z,68.36
2023-03-27T21:38:09.503Z,67.75
2023-03-27T21:39:09.565Z,66.48
2023-03-27T21:40:09.616Z,78.28
2023-03-27T21:41:09.655Z,90.85
2023-03-27T21:42:09.712Z,81.33
2023-03-27T21:43:09.780Z,69.46
2023-03-27T21:44:09.811Z,85.77
2023-03-27T21:45:09.895Z,97.80
2023-03-27T21:46:09.990Z,87.21
2023-03-27T21:47:09.986Z,100.59
2023-03-27T21:48:10.087Z,99.39
2023-03-27T21:49:10.114Z,116.24
2023-03-27T21:50:10.165Z,95.75
2023-03-27T21:51:10.201Z,83.53
2023-03-27T21:52:10.270Z,87.37
2023-03-27T21:53:10.306Z,78.66
2023-03-27T21:54:10.359Z,85.08
2023-03-27T21:55:10.440Z,76.80
2023-03-27T21:56:10.469Z,83.42
2023-03-27T21:57:10.582Z,105.85
2023-03-27T21:58:10.577Z,102.50
2023-03-27T21:59:10.640Z,97.72
2023-03-27T22:00:10.687Z,101.10
2023-03-27T22:01:10.773Z,104.66
2023-03-27T22:02:10.790Z,121.44
2023-03-27T22:03:10.842Z,109.22
2023-03-27T22:04:10.948Z,92.57
2023-03-27T22:05:10.943Z,89.37
2023-03-27T22:06:12.931Z,106.09
2023-03-27T22:07:11.034Z,110.39
2023-03-27T22:08:11.097Z,88.43
2023-03-27T22:09:11.155Z,100.29
2023-03-27T22:10:11.213Z,88.55
2023-03-27T22:11:11.269Z,101.89
2023-03-27T22:12:11.292Z,92.70
2023-03-27T22:13:11.347Z,108.15
2023-03-27T22:14:11.421Z,96.68
2023-03-27T22:15:11.471Z,86.22
2023-03-27T22:16:11.632Z,102.10
2023-03-27T22:17:11.575Z,114.06
2023-03-27T22:18:11.658Z,115.94
2023-03-27T22:19:11.689Z,110.14
2023-03-27T22:20:11.730Z,68.11
2023-03-27T22:21:11.801Z,83.88
2023-03-27T22:22:11.838Z,84.05
2023-03-27T22:23:11.916Z,86.67
2023-03-27T22:24:11.961Z,81.00
2023-03-27T22:25:12.008Z,84.66
2023-03-27T22:26:12.074Z,92.98
2023-03-27T22:27:12.110Z,100.79
2023-03-27T22:28:12.168Z,98.82
2023-03-27T22:29:12.227Z,94.63
2023-03-27T22:30:12.288Z,105.67
2023-03-27T22:31:12.481Z,89.57
2023-03-27T22:32:12.395Z,105.50
2023-03-27T22:33:12.455Z,96.13
2023-03-27T22:34:12.494Z,104.78
2023-03-27T22:35:12.552Z,100.15
2023-03-27T22:36:12.615Z,96.16
2023-03-27T22:37:12.644Z,98.51
2023-03-27T22:38:12.713Z,106.55
2023-03-27T22:39:12.765Z,99.79
2023-03-27T22:40:12.802Z,79.85
2023-03-27T22:41:12.867Z,77.43
2023-03-27T22:42:12.914Z,69.97
2023-03-27T22:43:22.926Z,101.31
2023-03-27T22:44:13.970Z,85.68
2023-03-27T22:45:12.970Z,75.89
2023-03-27T22:46:12.972Z,84.51
2023-03-27T22:47:12.947Z,98.60
2023-03-27T22:48:12.929Z,79.15
2023-03-27T22:49:12.919Z,90.46
2023-03-27T22:50:12.933Z,91.49
2023-03-27T22:51:12.934Z,80.56
2023-03-27T22:52:12.925Z,65.54
2023-03-27T22:53:12.902Z,93.63
2023-03-27T22:54:12.942Z,104.94
2023-03-27T22:55:12.973Z,91.18
2023-03-27T22:56:13.036Z,100.40
2023-03-27T22:57:13.097Z,88.85
2023-03-27T22:58:13.162Z,86.61
2023-03-27T22:59:13.214Z,99.89
2023-03-27T23:00:13.264Z,97.08
2023-03-27T23:01:13.320Z,101.66
2023-03-27T23:02:13.454Z,92.82
2023-03-27T23:03:13.509Z,101.04
2023-03-27T23:04:13.496Z,114.95
2023-03-27T23:05:13.544Z,99.42
2023-03-27T23:06:13.612Z,98.65
2023-03-27T23:07:13.657Z,98.71
2023-03-27T23:08:13.829Z,113.63
2023-03-27T23:09:13.759Z,120.99
2023-03-27T23:10:13.816Z,136.87
2023-03-27T23:11:13.923Z,123.35
2023-03-27T23:12:13.943Z,126.99
2023-03-27T23:13:13.986Z,107.72
2023-03-27T23:14:14.052Z,77.08
2023-03-27T23:15:14.122Z,96.67
2023-03-27T23:16:14.211Z,101.11
2023-03-27T23:17:14.298Z,114.27
2023-03-27T23:18:14.252Z,137.35
2023-03-27T23:19:14.313Z,138.59
2023-03-27T23:20:14.384Z,119.62
2023-03-27T23:21:14.441Z,117.03
2023-03-27T23:22:14.501Z,115.42
2023-03-27T23:23:14.555Z,104.94
2023-03-27T23:24:14.613Z,77.81
2023-03-27T23:25:14.683Z,86.69
2023-03-27T23:26:14.742Z,118.93
2023-03-27T23:27:14.789Z,101.91
2023-03-27T23:28:14.844Z,122.50
2023-03-27T23:29:14.901Z,107.78
2023-03-27T23:30:14.953Z,123.54
2023-03-27T23:31:15.062Z,116.48
2023-03-27T23:32:15.078Z,101.91
2023-03-27T23:33:15.136Z,94.37
2023-03-27T23:34:15.192Z,108.69
2023-03-27T23:35:15.259Z,120.12
2023-03-27T23:36:15.345Z,109.81
2023-03-27T23:37:15.370Z,108.03
2023-03-27T23:38:15.413Z,106.22
2023-03-27T23:39:15.479Z,110.46
2023-03-27T23:40:15.537Z,100.75
2023-03-27T23:41:15.594Z,109.61
2023-03-27T23:42:15.647Z,115.95
2023-03-27T23:43:15.692Z,120.26
2023-03-27T23:44:15.760Z,131.93
2023-03-27T23:45:15.823Z,115.77
2023-03-27T23:46:15.970Z,116.83
2023-03-27T23:47:15.924Z,120.48
2023-03-27T23:48:15.980Z,90.33
2023-03-27T23:49:16.048Z,96.64
2023-03-27T23:50:16.099Z,93.25
2023-03-27T23:51:16.187Z,91.12
2023-03-27T23:52:16.230Z,100.09
2023-03-27T23:53:16.267Z,104.46
2023-03-27T23:54:16.348Z,106.45
2023-03-27T23:55:16.402Z,113.27
2023-03-27T23:56:16.451Z,89.03
2023-03-27T23:57:16.550Z,118.87
2023-03-27T23:58:16.590Z,121.55
2023-03-27T23:59:16.630Z,121.34
